Time;durP1;ratioP1;P1;durP2;ratioP2;P2;SDS_P1;SDS_P2;PMS_P1;PMS_P2;Temp;Humidity;BMP_temperature;BMP_pressure;BME280_temperature;BME280_humidity;BME280_pressure;Samples;Min_cycle;Max_cycle;Signal;HPM_P1;HPM_P2
2021/12/31 00:00:42;;;;;;;7.80;2.65;;;;;;;;;;4993274;28;20049;-75
2021/12/31 00:03:10;;;;;;;7.88;2.70;;;;;;;;;;4993734;28;20054;-77
2021/12/31 00:05:37;;;;;;;3.95;2.25;;;;;;;;;;4993427;28;20038;-75
2021/12/31 00:08:07;;;;;;;4.35;2.33;;;;;;;;;;4993390;28;20073;-77
2021/12/31 00:10:40;;;;;;;4.93;2.40;;;;;;;;;;4993334;28;20038;-76
2021/12/31 00:13:08;;;;;;;6.07;2.22;;;;;;;;;;4993425;28;20051;-75
2021/12/31 00:15:38;;;;;;;10.05;2.78;;;;;;;;;;4993632;28;20042;-77
2021/12/31 00:18:07;;;;;;;8.98;2.33;;;;;;;;;;4995230;28;20074;-76
2021/12/31 00:20:39;;;;;;;4.97;2.33;;;;;;;;;;4997356;28;20046;-76
2021/12/31 00:23:12;;;;;;;5.88;2.40;;;;;;;;;;4980230;28;20526;-75
2021/12/31 00:25:44;;;;;;;4.75;2.08;;;;;;;;;;4996845;28;20038;-75
2021/12/31 00:28:12;;;;;;;4.72;1.70;;;;;;;;;;4979659;28;20050;-75
2021/12/31 00:30:40;;;;;;;5.47;2.05;;;;;;;;;;4979337;28;20058;-75
2021/12/31 00:33:09;;;;;;;5.53;2.28;;;;;;;;;;4997010;28;20046;-75
2021/12/31 00:35:38;;;;;;;4.88;1.90;;;;;;;;;;4996750;28;20039;-75
2021/12/31 00:38:08;;;;;;;5.93;2.53;;;;;;;;;;4997120;28;20381;-76
2021/12/31 00:40:39;;;;;;;4.53;2.00;;;;;;;;;;4997204;28;20042;-77
2021/12/31 00:43:14;;;;;;;8.25;2.10;;;;;;;;;;5016368;28;20380;-75
2021/12/31 00:45:45;;;;;;;5.07;2.33;;;;;;;;;;5016149;28;20382;-75
2021/12/31 00:48:13;;;;;;;4.20;1.98;;;;;;;;;;5016115;28;20106;-76
2021/12/31 00:50:41;;;;;;;5.72;2.47;;;;;;;;;;5016267;28;20046;-78
2021/12/31 00:53:09;;;;;;;3.60;2.00;;;;;;;;;;5016213;28;20493;-76
2021/12/31 00:55:39;;;;;;;3.03;1.98;;;;;;;;;;5016317;28;20120;-79
2021/12/31 00:58:09;;;;;;;6.20;1.77;;;;;;;;;;5016307;28;20046;-75
2021/12/31 01:00:41;;;;;;;4.07;2.30;;;;;;;;;;5016286;28;20453;-75
2021/12/31 01:03:10;;;;;;;6.03;2.33;;;;;;;;;;5016590;28;20104;-78
2021/12/31 01:05:38;;;;;;;4.88;2.28;;;;;;;;;;5015927;28;20443;-76
2021/12/31 01:08:06;;;;;;;5.25;2.10;;;;;;;;;;5016003;28;20033;-79
2021/12/31 01:10:37;;;;;;;3.97;2.10;;;;;;;;;;5016059;28;20045;-78
2021/12/31 01:13:09;;;;;;;4.25;1.95;;;;;;;;;;4997965;28;20052;-76
2021/12/31 01:15:42;;;;;;;3.08;1.95;;;;;;;;;;5018909;28;20425;-75
2021/12/31 01:18:20;;;;;;;3.25;2.00;;;;;;;;;;5035506;28;20053;-78
2021/12/31 01:20:50;;;;;;;4.93;2.10;;;;;;;;;;5035372;28;20049;-77
2021/12/31 01:23:21;;;;;;;5.82;2.10;;;;;;;;;;5035463;28;20045;-75
2021/12/31 01:25:50;;;;;;;3.15;1.80;;;;;;;;;;5035092;28;20049;-78
2021/12/31 01:28:22;;;;;;;6.20;1.85;;;;;;;;;;5035298;28;20046;-76
2021/12/31 01:30:51;;;;;;;9.45;2.03;;;;;;;;;;5034385;28;20124;-76
2021/12/31 01:33:22;;;;;;;5.25;2.10;;;;;;;;;;5018168;28;20131;-76
2021/12/31 01:35:53;;;;;;;4.00;1.95;;;;;;;;;;5034913;28;20041;-78
2021/12/31 01:38:21;;;;;;;6.18;1.98;;;;;;;;;;5035138;28;20149;-76
2021/12/31 01:40:49;;;;;;;5.43;1.60;;;;;;;;;;5035281;28;20050;-79
2021/12/31 01:43:19;;;;;;;5.22;1.88;;;;;;;;;;5035093;28;20483;-76
2021/12/31 01:45:54;;;;;;;5.05;2.10;;;;;;;;;;5034755;28;20037;-79
2021/12/31 01:50:53;;;;;;;2.92;1.50;;;;;;;;;;5017118;28;20069;-77
2021/12/31 01:53:23;;;;;;;4.78;2.47;;;;;;;;;;5034784;28;20042;-75
2021/12/31 01:55:52;;;;;;;2.90;1.80;;;;;;;;;;5035227;28;20052;-79
2021/12/31 01:58:24;;;;;;;6.25;1.80;;;;;;;;;;5034828;28;20045;-76
2021/12/31 02:00:52;;;;;;;5.32;1.77;;;;;;;;;;5034695;28;20114;-79
2021/12/31 02:03:20;;;;;;;7.32;2.00;;;;;;;;;;5034852;28;20056;-78
2021/12/31 02:05:50;;;;;;;4.25;1.92;;;;;;;;;;5034262;28;20034;-76
2021/12/31 02:08:19;;;;;;;2.95;1.67;;;;;;;;;;5034572;28;20055;-78
2021/12/31 02:10:51;;;;;;;3.08;1.60;;;;;;;;;;5034490;28;20052;-79
2021/12/31 02:13:20;;;;;;;2.50;1.60;;;;;;;;;;5033675;28;20103;-78
2021/12/31 02:15:52;;;;;;;6.07;1.60;;;;;;;;;;5034558;28;20127;-76
2021/12/31 02:18:20;;;;;;;5.68;1.52;;;;;;;;;;5034372;28;20132;-76
2021/12/31 02:20:55;;;;;;;3.28;1.50;;;;;;;;;;5034540;28;20076;-76
2021/12/31 02:23:26;;;;;;;6.95;1.80;;;;;;;;;;5033984;28;20058;-75
2021/12/31 02:25:55;;;;;;;5.38;1.83;;;;;;;;;;5033945;28;20037;-75
2021/12/31 02:28:22;;;;;;;2.67;1.83;;;;;;;;;;5031067;28;20038;-75
2021/12/31 02:30:50;;;;;;;4.03;1.45;;;;;;;;;;4997005;28;20038;-79
2021/12/31 02:33:18;;;;;;;5.47;1.30;;;;;;;;;;5014392;28;20057;-75
2021/12/31 02:35:47;;;;;;;3.08;1.52;;;;;;;;;;4997040;28;20041;-76
2021/12/31 02:38:14;;;;;;;3.90;1.73;;;;;;;;;;5014616;28;20046;-75
2021/12/31 02:40:45;;;;;;;3.35;1.52;;;;;;;;;;4996708;28;20045;-76
2021/12/31 02:43:13;;;;;;;5.55;1.67;;;;;;;;;;5014246;28;20046;-75
2021/12/31 02:45:43;;;;;;;3.28;1.70;;;;;;;;;;5013997;28;20038;-76
2021/12/31 02:48:11;;;;;;;3.10;1.52;;;;;;;;;;5013703;28;20509;-76
2021/12/31 02:50:41;;;;;;;3.78;1.83;;;;;;;;;;5013986;28;20069;-75
2021/12/31 02:53:13;;;;;;;4.72;1.52;;;;;;;;;;5014386;28;20041;-75
2021/12/31 02:55:42;;;;;;;5.72;1.85;;;;;;;;;;5013833;28;20053;-75
2021/12/31 02:58:12;;;;;;;2.78;1.90;;;;;;;;;;5014093;28;20397;-75
2021/12/31 03:00:41;;;;;;;8.85;4.15;;;;;;;;;;5013529;28;20065;-75
2021/12/31 03:03:13;;;;;;;4.03;1.67;;;;;;;;;;5014064;28;20050;-75
2021/12/31 03:05:46;;;;;;;6.75;2.25;;;;;;;;;;5013559;28;20285;-76
2021/12/31 03:08:14;;;;;;;10.27;2.58;;;;;;;;;;5013554;28;20045;-76
2021/12/31 03:10:43;;;;;;;6.10;2.97;;;;;;;;;;4996035;28;20456;-75
2021/12/31 03:13:11;;;;;;;6.07;2.67;;;;;;;;;;5013321;28;20537;-75
2021/12/31 03:15:40;;;;;;;7.07;2.30;;;;;;;;;;5013510;28;20069;-75
2021/12/31 03:18:11;;;;;;;3.78;1.63;;;;;;;;;;5013590;28;20046;-76
2021/12/31 03:20:46;;;;;;;4.80;1.95;;;;;;;;;;4996214;28;20050;-78
2021/12/31 03:23:16;;;;;;;5.15;2.00;;;;;;;;;;5013571;28;20048;-78
2021/12/31 03:25:45;;;;;;;4.85;2.08;;;;;;;;;;4996196;28;20038;-75
2021/12/31 03:28:15;;;;;;;2.83;1.60;;;;;;;;;;4996389;28;20042;-76
2021/12/31 03:30:42;;;;;;;3.33;1.90;;;;;;;;;;5013455;28;20425;-78
2021/12/31 03:33:10;;;;;;;5.72;2.00;;;;;;;;;;4995809;28;20125;-76
2021/12/31 03:35:41;;;;;;;5.32;1.80;;;;;;;;;;4995790;28;20064;-77
2021/12/31 03:38:13;;;;;;;5.03;2.00;;;;;;;;;;5013552;28;20176;-78
2021/12/31 03:40:42;;;;;;;3.47;1.90;;;;;;;;;;5013537;28;20125;-75
2021/12/31 03:43:09;;;;;;;5.70;1.60;;;;;;;;;;5012972;28;20050;-75
2021/12/31 03:45:42;;;;;;;3.28;1.52;;;;;;;;;;4995605;28;20414;-76
2021/12/31 03:48:09;;;;;;;4.18;1.50;;;;;;;;;;5012669;28;20046;-75
2021/12/31 03:50:37;;;;;;;8.80;2.00;;;;;;;;;;5013353;28;20042;-75
2021/12/31 03:53:05;;;;;;;2.70;1.50;;;;;;;;;;5014672;28;20034;-77
2021/12/31 03:55:35;;;;;;;4.47;1.75;;;;;;;;;;5017481;28;20037;-77
2021/12/31 03:58:03;;;;;;;5.28;1.75;;;;;;;;;;5016800;28;20460;-76
2021/12/31 04:00:34;;;;;;;3.20;1.65;;;;;;;;;;5017076;28;20077;-76
2021/12/31 04:03:11;;;;;;;9.82;1.88;;;;;;;;;;5017036;28;20078;-75
2021/12/31 04:05:41;;;;;;;20.75;12.68;;;;;;;;;;5014335;28;20057;-75
2021/12/31 04:08:10;;;;;;;30.73;19.23;;;;;;;;;;5016813;28;20061;-77
2021/12/31 04:10:37;;;;;;;31.17;18.42;;;;;;;;;;5017033;28;20042;-75
2021/12/31 04:13:09;;;;;;;27.70;14.73;;;;;;;;;;5016893;28;20382;-78
2021/12/31 04:15:36;;;;;;;29.33;16.10;;;;;;;;;;5017243;28;20049;-77
2021/12/31 04:18:06;;;;;;;27.35;14.48;;;;;;;;;;5017190;28;20397;-75
2021/12/31 04:20:41;;;;;;;23.10;13.20;;;;;;;;;;5015750;28;20057;-76
2021/12/31 04:23:14;;;;;;;17.00;8.65;;;;;;;;;;5015509;28;20516;-78
2021/12/31 04:25:44;;;;;;;9.43;4.45;;;;;;;;;;4999434;28;20046;-74
2021/12/31 04:28:13;;;;;;;12.73;6.10;;;;;;;;;;5017044;28;20069;-78
2021/12/31 04:30:43;;;;;;;11.38;6.63;;;;;;;;;;5016648;28;20481;-78
2021/12/31 04:33:11;;;;;;;9.32;4.75;;;;;;;;;;4998979;28;20132;-75
2021/12/31 04:35:40;;;;;;;6.80;3.70;;;;;;;;;;5016520;28;20363;-76
2021/12/31 04:38:08;;;;;;;5.75;2.60;;;;;;;;;;5016885;28;20042;-78
2021/12/31 04:40:38;;;;;;;5.57;2.22;;;;;;;;;;4999637;28;20527;-76
2021/12/31 04:43:06;;;;;;;2.47;1.73;;;;;;;;;;5016548;28;20136;-78
2021/12/31 04:45:34;;;;;;;7.07;3.28;;;;;;;;;;5016243;28;20065;-77
2021/12/31 04:48:03;;;;;;;5.03;2.80;;;;;;;;;;5015924;28;20042;-78
2021/12/31 04:50:34;;;;;;;7.97;3.45;;;;;;;;;;5016505;28;20042;-75
2021/12/31 04:53:04;;;;;;;6.20;3.60;;;;;;;;;;5016292;28;20498;-74
2021/12/31 04:55:34;;;;;;;9.55;3.33;;;;;;;;;;5016198;28;20072;-77
2021/12/31 04:58:02;;;;;;;7.55;3.10;;;;;;;;;;5016210;28;20161;-77
2021/12/31 05:00:30;;;;;;;3.97;2.25;;;;;;;;;;4998401;28;20046;-75
2021/12/31 05:02:57;;;;;;;4.10;1.80;;;;;;;;;;5016330;28;20512;-75
2021/12/31 05:05:31;;;;;;;3.35;1.95;;;;;;;;;;5015767;28;20121;-75
2021/12/31 05:07:59;;;;;;;5.25;1.60;;;;;;;;;;5015871;28;20065;-76
2021/12/31 05:10:31;;;;;;;6.40;2.55;;;;;;;;;;5015959;28;20057;-78
2021/12/31 05:13:02;;;;;;;3.80;2.10;;;;;;;;;;5015455;28;20456;-75
2021/12/31 05:15:35;;;;;;;3.13;1.92;;;;;;;;;;5015785;28;20042;-76
2021/12/31 05:18:04;;;;;;;5.30;2.75;;;;;;;;;;4998696;28;20057;-76
2021/12/31 05:20:32;;;;;;;7.65;2.35;;;;;;;;;;5015285;28;20058;-74
2021/12/31 05:23:00;;;;;;;6.47;2.55;;;;;;;;;;4998508;28;20040;-75
2021/12/31 05:25:28;;;;;;;6.03;2.20;;;;;;;;;;5015490;28;20124;-76
2021/12/31 05:28:00;;;;;;;6.45;2.45;;;;;;;;;;5015515;28;20050;-75
2021/12/31 05:30:30;;;;;;;9.85;2.72;;;;;;;;;;5015410;28;20124;-75
2021/12/31 05:33:01;;;;;;;3.00;2.00;;;;;;;;;;5015265;28;20425;-74
2021/12/31 05:35:28;;;;;;;3.42;2.03;;;;;;;;;;5015690;28;20053;-75
2021/12/31 05:37:57;;;;;;;3.67;2.00;;;;;;;;;;5015291;28;20053;-77
2021/12/31 05:40:28;;;;;;;6.50;1.85;;;;;;;;;;4998191;28;20065;-74
2021/12/31 05:42:56;;;;;;;2.72;2.00;;;;;;;;;;5015287;28;20046;-75
2021/12/31 05:45:25;;;;;;;4.03;2.10;;;;;;;;;;5015078;28;20038;-78
2021/12/31 05:48:05;;;;;;;3.40;2.00;;;;;;;;;;5014712;28;20404;-77
2021/12/31 05:50:35;;;;;;;3.72;2.03;;;;;;;;;;5015234;28;20042;-76
2021/12/31 05:53:03;;;;;;;9.05;2.47;;;;;;;;;;4997897;28;20050;-75
2021/12/31 05:55:30;;;;;;;5.03;2.20;;;;;;;;;;5015096;28;20052;-75
2021/12/31 05:57:58;;;;;;;5.55;2.10;;;;;;;;;;5015406;28;20042;-75
2021/12/31 06:00:26;;;;;;;4.38;1.70;;;;;;;;;;5014868;28;20141;-77
2021/12/31 06:02:57;;;;;;;2.70;1.90;;;;;;;;;;5014966;28;20054;-77
2021/12/31 06:05:27;;;;;;;6.90;2.55;;;;;;;;;;4997520;28;20054;-75
2021/12/31 06:07:57;;;;;;;3.80;2.22;;;;;;;;;;5014763;28;20381;-75
2021/12/31 06:10:28;;;;;;;4.10;2.35;;;;;;;;;;5014613;28;20076;-78
2021/12/31 06:12:58;;;;;;;5.25;2.20;;;;;;;;;;5014658;28;20042;-78
2021/12/31 06:15:30;;;;;;;6.03;2.53;;;;;;;;;;4997736;28;20042;-78
2021/12/31 06:17:58;;;;;;;4.13;2.17;;;;;;;;;;5014350;28;20041;-75
2021/12/31 06:20:28;;;;;;;5.55;2.88;;;;;;;;;;5014998;28;20046;-78
2021/12/31 06:22:58;;;;;;;5.45;2.40;;;;;;;;;;4996756;28;20057;-79
2021/12/31 06:25:28;;;;;;;9.65;2.75;;;;;;;;;;4980876;28;20045;-75
2021/12/31 06:27:57;;;;;;;3.42;2.28;;;;;;;;;;5014331;28;20429;-77
2021/12/31 06:30:25;;;;;;;4.40;2.28;;;;;;;;;;5014520;28;20044;-75
2021/12/31 06:32:53;;;;;;;4.63;1.95;;;;;;;;;;4996747;28;20092;-76
2021/12/31 06:35:23;;;;;;;6.05;2.42;;;;;;;;;;5014254;28;20092;-75
2021/12/31 06:37:53;;;;;;;3.78;2.35;;;;;;;;;;5014488;28;20042;-79
2021/12/31 06:40:24;;;;;;;4.25;2.53;;;;;;;;;;5014255;28;20129;-75
2021/12/31 06:42:52;;;;;;;4.80;2.35;;;;;;;;;;4980283;28;20054;-75
2021/12/31 06:45:21;;;;;;;4.47;1.95;;;;;;;;;;4994385;28;20073;-79
2021/12/31 06:47:51;;;;;;;3.10;2.08;;;;;;;;;;4994044;28;20501;-78
2021/12/31 06:50:19;;;;;;;4.22;3.30;;;;;;;;;;4977586;28;20493;-77
2021/12/31 06:52:51;;;;;;;7.72;4.28;;;;;;;;;;4994597;28;20050;-76
2021/12/31 06:55:23;;;;;;;8.13;5.22;;;;;;;;;;4994223;28;20056;-77
2021/12/31 06:57:55;;;;;;;8.93;5.97;;;;;;;;;;4994447;28;20442;-76
2021/12/31 07:00:24;;;;;;;9.55;7.20;;;;;;;;;;4994108;28;20073;-75
2021/12/31 07:03:07;;;;;;;9.85;7.68;;;;;;;;;;4994227;28;20564;-79
2021/12/31 07:05:34;;;;;;;14.00;7.80;;;;;;;;;;4993983;28;20130;-75
2021/12/31 07:08:02;;;;;;;10.80;7.18;;;;;;;;;;4994233;28;20474;-79
2021/12/31 07:10:32;;;;;;;13.13;7.70;;;;;;;;;;4976656;28;20042;-76
2021/12/31 07:13:01;;;;;;;12.05;8.05;;;;;;;;;;4976483;28;20129;-81
2021/12/31 07:15:30;;;;;;;12.48;7.68;;;;;;;;;;4977259;28;20042;-76
2021/12/31 07:17:58;;;;;;;15.55;7.03;;;;;;;;;;4978101;28;20537;-81
2021/12/31 07:20:27;;;;;;;9.85;7.15;;;;;;;;;;4995550;28;20042;-81
2021/12/31 07:22:55;;;;;;;11.05;7.22;;;;;;;;;;4994009;28;20128;-75
2021/12/31 07:25:23;;;;;;;10.25;6.55;;;;;;;;;;4993787;28;20048;-81
2021/12/31 07:27:53;;;;;;;11.68;6.38;;;;;;;;;;4992755;28;20034;-75
2021/12/31 07:30:21;;;;;;;11.45;5.70;;;;;;;;;;4976813;28;20047;-75
2021/12/31 07:32:52;;;;;;;9.75;5.18;;;;;;;;;;4993920;28;20113;-75
2021/12/31 07:35:20;;;;;;;9.00;4.93;;;;;;;;;;4993933;28;20093;-81
2021/12/31 07:37:48;;;;;;;9.60;4.97;;;;;;;;;;4976220;28;20082;-75
2021/12/31 07:40:36;;;;;;;6.60;4.20;;;;;;;;;;4995371;28;20073;-76
2021/12/31 07:43:10;;;;;;;9.65;3.92;;;;;;;;;;5013554;28;20053;-81
2021/12/31 07:45:39;;;;;;;8.00;2.95;;;;;;;;;;5012840;28;20492;-75
2021/12/31 07:48:07;;;;;;;7.82;3.28;;;;;;;;;;5012920;28;20045;-81
2021/12/31 07:50:36;;;;;;;7.97;4.15;;;;;;;;;;4991694;28;20045;-75
2021/12/31 07:53:04;;;;;;;6.15;3.50;;;;;;;;;;5007662;28;20080;-78
2021/12/31 07:55:31;;;;;;;5.82;3.33;;;;;;;;;;5013118;28;20409;-83
2021/12/31 07:58:00;;;;;;;6.00;3.47;;;;;;;;;;5013484;28;20037;-83
2021/12/31 08:00:28;;;;;;;7.28;4.28;;;;;;;;;;5013080;28;20421;-83
2021/12/31 08:02:56;;;;;;;2.47;1.90;;;;;;;;;;4995747;28;20117;-73
2021/12/31 08:05:28;;;;;;;3.45;2.70;;;;;;;;;;5013275;28;20100;-77
2021/12/31 08:07:55;;;;;;;3.45;2.20;;;;;;;;;;5013291;28;20065;-75
2021/12/31 08:10:23;;;;;;;2.83;1.88;;;;;;;;;;5015921;28;20551;-75
2021/12/31 08:13:14;;;;;;;2.90;1.70;;;;;;;;;;5010988;28;20053;-76
2021/12/31 08:15:41;;;;;;;4.63;2.13;;;;;;;;;;5012632;28;20042;-75
2021/12/31 08:18:10;;;;;;;5.40;1.98;;;;;;;;;;4978501;28;20429;-80
2021/12/31 08:20:38;;;;;;;3.83;1.52;;;;;;;;;;4991967;28;20043;-82
2021/12/31 08:23:10;;;;;;;5.45;3.30;;;;;;;;;;5000419;28;20064;-84
2021/12/31 08:25:43;;;;;;;5.43;2.30;;;;;;;;;;4984364;28;20112;-82
2021/12/31 08:28:11;;;;;;;4.38;2.03;;;;;;;;;;4993105;28;20051;-78
2021/12/31 08:30:39;;;;;;;2.22;1.40;;;;;;;;;;4993132;28;20513;-76
2021/12/31 08:33:06;;;;;;;4.80;3.15;;;;;;;;;;4975819;28;20137;-78
2021/12/31 08:35:35;;;;;;;6.80;2.10;;;;;;;;;;5003588;28;20046;-72
2021/12/31 08:38:05;;;;;;;5.13;1.65;;;;;;;;;;5000663;28;20520;-79
2021/12/31 08:40:32;;;;;;;24.27;10.10;;;;;;;;;;4996823;28;20050;-79
2021/12/31 08:43:05;;;;;;;34.08;16.25;;;;;;;;;;5013851;28;20054;-75
2021/12/31 08:45:32;;;;;;;;;;;;;;;;;;5016661;28;20516;-75
2021/12/31 08:48:03;;;;;;;88.45;37.97;;;;;;;;;;5015804;28;19921;-80
2021/12/31 08:50:31;;;;;;;10.88;6.13;;;;;;;;;;5025376;28;20042;-75
2021/12/31 08:52:59;;;;;;;90.50;37.22;;;;;;;;;;5007072;28;20041;-73
2021/12/31 08:55:26;;;;;;;11.70;5.20;;;;;;;;;;5017757;28;20113;-78
2021/12/31 08:57:54;;;;;;;8.18;4.97;;;;;;;;;;5027945;28;20440;-77
2021/12/31 09:00:23;;;;;;;17.40;6.15;;;;;;;;;;5017334;28;20456;-73
2021/12/31 09:02:51;;;;;;;7.57;2.78;;;;;;;;;;5026221;28;20128;-73
2021/12/31 09:05:19;;;;;;;16.52;6.88;;;;;;;;;;5028668;28;20100;-75
2021/12/31 09:07:48;;;;;;;25.30;11.38;;;;;;;;;;5017025;28;20392;-76
2021/12/31 09:10:20;;;;;;;15.18;6.63;;;;;;;;;;5021808;28;20061;-73
2021/12/31 09:12:49;;;;;;;31.05;13.32;;;;;;;;;;5023417;28;20389;-73
2021/12/31 09:15:17;;;;;;;85.05;34.03;;;;;;;;;;5024935;28;20064;-78
2021/12/31 09:17:47;;;;;;;65.10;26.38;;;;;;;;;;5006728;28;20478;-79
2021/12/31 09:20:15;;;;;;;9.77;4.28;;;;;;;;;;5020721;28;20417;-77
2021/12/31 09:22:45;;;;;;;3.58;2.50;;;;;;;;;;5020355;28;20041;-80
2021/12/31 09:25:14;;;;;;;8.65;3.80;;;;;;;;;;5038635;28;20045;-75
2021/12/31 09:27:42;;;;;;;88.40;44.08;;;;;;;;;;5034643;28;20053;-79
2021/12/31 09:30:13;;;;;;;12.70;6.15;;;;;;;;;;5034577;28;20039;-73
2021/12/31 09:32:41;;;;;;;31.27;15.85;;;;;;;;;;5035013;28;20113;-76
2021/12/31 09:35:09;;;;;;;6.80;3.50;;;;;;;;;;5034401;28;20041;-79
2021/12/31 09:37:40;;;;;;;6.00;2.50;;;;;;;;;;5033994;28;20041;-77
2021/12/31 09:40:09;;;;;;;5.32;2.75;;;;;;;;;;5032625;28;20361;-78
2021/12/31 09:42:38;;;;;;;11.80;5.70;;;;;;;;;;5034256;28;20140;-82
2021/12/31 09:45:08;;;;;;;28.85;13.77;;;;;;;;;;5035687;28;20053;-77
2021/12/31 09:47:35;;;;;;;12.48;6.32;;;;;;;;;;5034771;28;20037;-78
2021/12/31 09:50:03;;;;;;;14.52;6.97;;;;;;;;;;5033318;28;20041;-78
2021/12/31 09:52:34;;;;;;;24.98;11.52;;;;;;;;;;5035165;28;20041;-79
2021/12/31 09:55:09;;;;;;;3.13;2.28;;;;;;;;;;5034366;28;20440;-79
2021/12/31 09:57:37;;;;;;;5.22;2.20;;;;;;;;;;5034458;28;20045;-80
2021/12/31 10:00:06;;;;;;;7.15;2.80;;;;;;;;;;5034221;28;20072;-76
2021/12/31 10:02:34;;;;;;;5.72;2.40;;;;;;;;;;5034532;28;20465;-76
2021/12/31 10:05:03;;;;;;;4.20;2.85;;;;;;;;;;5034692;28;20461;-80
2021/12/31 10:07:34;;;;;;;4.95;3.15;;;;;;;;;;5034502;28;20534;-76
2021/12/31 10:10:24;;;;;;;5.97;3.03;;;;;;;;;;5034419;28;20037;-80
2021/12/31 10:12:59;;;;;;;8.82;3.45;;;;;;;;;;5034473;28;20088;-79
2021/12/31 10:15:27;;;;;;;7.47;3.38;;;;;;;;;;5034742;28;20103;-82
2021/12/31 10:17:55;;;;;;;23.35;10.02;;;;;;;;;;5017127;28;20473;-80
2021/12/31 10:20:22;;;;;;;16.40;8.77;;;;;;;;;;5017352;28;20038;-82
2021/12/31 10:22:51;;;;;;;12.02;5.93;;;;;;;;;;5016517;28;20104;-75
2021/12/31 10:25:26;;;;;;;3.78;2.97;;;;;;;;;;5016188;28;20044;-78
2021/12/31 10:28:08;;;;;;;5.25;3.13;;;;;;;;;;5034076;28;20041;-79
2021/12/31 10:30:39;;;;;;;5.80;3.20;;;;;;;;;;5034473;28;20073;-82
2021/12/31 10:33:07;;;;;;;7.75;4.22;;;;;;;;;;5034000;28;20038;-82
2021/12/31 10:35:39;;;;;;;6.63;3.33;;;;;;;;;;5034343;28;20041;-76
2021/12/31 10:38:11;;;;;;;5.18;2.90;;;;;;;;;;5034064;28;20049;-79
2021/12/31 10:40:43;;;;;;;6.38;2.92;;;;;;;;;;5043276;22;20547;-78
2021/12/31 10:43:18;;;;;;;4.43;2.80;;;;;;;;;;5013238;28;20113;-79
2021/12/31 10:45:58;;;;;;;6.00;3.55;;;;;;;;;;5014078;28;20059;-76
2021/12/31 10:48:45;;;;;;;6.63;3.00;;;;;;;;;;5013589;28;20038;-82
2021/12/31 10:51:14;;;;;;;4.88;3.33;;;;;;;;;;5014222;28;20072;-82
2021/12/31 10:53:49;;;;;;;4.95;3.28;;;;;;;;;;5013794;28;20042;-77
2021/12/31 10:56:18;;;;;;;6.43;3.20;;;;;;;;;;4994279;28;20042;-73
2021/12/31 10:58:47;;;;;;;8.93;4.38;;;;;;;;;;4994495;28;20114;-78
2021/12/31 11:01:16;;;;;;;6.80;3.80;;;;;;;;;;4993824;28;20038;-74
2021/12/31 11:03:47;;;;;;;4.40;3.22;;;;;;;;;;4992639;28;20077;-76
2021/12/31 11:06:14;;;;;;;6.18;3.60;;;;;;;;;;4993953;28;20054;-79
2021/12/31 11:08:49;;;;;;;7.55;3.75;;;;;;;;;;4994011;28;20042;-79
2021/12/31 11:11:24;;;;;;;4.72;2.90;;;;;;;;;;4994169;28;20135;-76
2021/12/31 11:13:52;;;;;;;4.10;2.83;;;;;;;;;;4994484;28;20125;-82
2021/12/31 11:16:20;;;;;;;4.18;3.10;;;;;;;;;;4994198;28;20042;-79
2021/12/31 11:18:48;;;;;;;6.07;3.38;;;;;;;;;;4993073;28;20367;-79
2021/12/31 11:21:16;;;;;;;4.80;3.40;;;;;;;;;;4993812;28;20049;-79
2021/12/31 11:23:44;;;;;;;5.43;3.40;;;;;;;;;;4993971;28;20046;-82
2021/12/31 11:26:13;;;;;;;3.67;2.90;;;;;;;;;;4993478;28;20043;-79
2021/12/31 11:28:42;;;;;;;8.05;3.60;;;;;;;;;;4994026;28;20398;-76
2021/12/31 11:31:15;;;;;;;7.35;3.72;;;;;;;;;;4993938;28;20398;-80
2021/12/31 11:33:44;;;;;;;7.30;3.53;;;;;;;;;;4993779;28;20042;-76
2021/12/31 11:36:16;;;;;;;6.68;3.25;;;;;;;;;;4993326;28;20050;-80
2021/12/31 11:38:44;;;;;;;3.97;2.85;;;;;;;;;;4993408;28;20129;-77
2021/12/31 11:41:24;;;;;;;6.43;4.03;;;;;;;;;;4993742;28;20051;-76
2021/12/31 11:44:10;;;;;;;7.45;3.72;;;;;;;;;;4993559;28;20634;-73
2021/12/31 11:46:41;;;;;;;5.45;3.45;;;;;;;;;;4976553;28;20105;-74
2021/12/31 11:49:10;;;;;;;5.22;3.85;;;;;;;;;;4993292;28;20077;-77
2021/12/31 11:51:39;;;;;;;6.80;3.53;;;;;;;;;;4993700;28;20105;-77
2021/12/31 11:54:06;;;;;;;5.65;3.53;;;;;;;;;;4993423;28;20049;-77
2021/12/31 11:56:45;;;;;;;7.97;4.05;;;;;;;;;;4993722;28;20050;-76
2021/12/31 11:59:16;;;;;;;6.15;3.85;;;;;;;;;;4993450;28;20121;-73
2021/12/31 12:02:04;;;;;;;9.05;4.03;;;;;;;;;;4992164;28;20121;-76
2021/12/31 12:04:39;;;;;;;6.95;4.30;;;;;;;;;;4992169;28;20057;-80
2021/12/31 12:07:25;;;;;;;26.30;13.43;;;;;;;;;;4993450;28;20125;-82
2021/12/31 12:09:56;;;;;;;5.47;3.45;;;;;;;;;;4993510;28;20402;-82
2021/12/31 12:12:29;;;;;;;12.40;3.42;;;;;;;;;;4991764;28;20085;-76
2021/12/31 12:14:58;;;;;;;8.85;5.03;;;;;;;;;;4996521;28;20042;-76
2021/12/31 12:17:31;;;;;;;7.53;3.60;;;;;;;;;;4997582;28;20405;-80
2021/12/31 12:20:13;;;;;;;33.90;14.95;;;;;;;;;;4997400;28;20047;-77
2021/12/31 12:22:44;;;;;;;6.40;3.10;;;;;;;;;;4994530;28;20502;-79
2021/12/31 12:25:16;;;;;;;11.32;3.22;;;;;;;;;;4996804;28;20569;-77
2021/12/31 12:27:47;;;;;;;10.40;3.97;;;;;;;;;;4997128;28;20394;-79
2021/12/31 12:30:15;;;;;;;7.80;3.67;;;;;;;;;;4997160;28;20042;-75
2021/12/31 12:35:23;;;;;;;6.05;2.90;;;;;;;;;;4997301;28;20038;-78
2021/12/31 12:38:07;;;;;;;9.57;4.15;;;;;;;;;;4996749;28;20121;-76
2021/12/31 12:40:43;;;;;;;5.70;2.80;;;;;;;;;;4997498;28;20473;-79
2021/12/31 12:43:19;;;;;;;12.60;5.63;;;;;;;;;;4996799;28;20042;-75
2021/12/31 12:45:52;;;;;;;12.57;3.25;;;;;;;;;;4996819;28;20042;-80
2021/12/31 12:48:39;;;;;;;11.35;2.90;;;;;;;;;;4996587;28;20045;-82
2021/12/31 12:51:08;;;;;;;9.70;3.97;;;;;;;;;;4996868;28;20385;-78
2021/12/31 12:53:37;;;;;;;4.85;2.95;;;;;;;;;;4996632;28;20042;-79
2021/12/31 12:56:09;;;;;;;9.32;4.60;;;;;;;;;;4996762;28;20053;-81
2021/12/31 12:58:38;;;;;;;17.58;7.05;;;;;;;;;;4995552;28;20061;-78
2021/12/31 13:01:13;;;;;;;14.05;6.45;;;;;;;;;;4996771;28;20474;-82
2021/12/31 13:03:53;;;;;;;10.05;5.22;;;;;;;;;;4996591;28;20129;-82
2021/12/31 13:06:27;;;;;;;11.63;4.00;;;;;;;;;;4996420;28;20117;-80
2021/12/31 13:09:15;;;;;;;4.80;2.50;;;;;;;;;;4995314;28;20077;-76
2021/12/31 13:11:59;;;;;;;7.93;4.00;;;;;;;;;;4996571;28;20034;-77
2021/12/31 13:14:34;;;;;;;4.53;2.45;;;;;;;;;;4996113;28;20080;-79
2021/12/31 13:17:05;;;;;;;4.82;2.35;;;;;;;;;;4996518;28;20042;-75
2021/12/31 13:19:33;;;;;;;10.18;3.15;;;;;;;;;;4996859;28;20125;-79
2021/12/31 13:22:02;;;;;;;8.80;3.95;;;;;;;;;;4995974;28;20183;-82
2021/12/31 13:24:30;;;;;;;9.90;4.13;;;;;;;;;;4996077;28;20049;-82
2021/12/31 13:27:05;;;;;;;7.88;3.55;;;;;;;;;;4994897;28;20042;-80
2021/12/31 13:29:34;;;;;;;6.50;2.88;;;;;;;;;;4995983;28;20045;-78
2021/12/31 13:32:28;;;;;;;4.63;2.47;;;;;;;;;;4996265;28;20386;-78
2021/12/31 13:34:57;;;;;;;4.80;2.88;;;;;;;;;;4992552;28;20050;-82
2021/12/31 13:37:37;;;;;;;6.72;2.88;;;;;;;;;;4995571;28;20466;-82
2021/12/31 13:40:20;;;;;;;6.45;2.80;;;;;;;;;;4996389;28;20053;-80
2021/12/31 13:43:02;;;;;;;4.82;2.30;;;;;;;;;;4995272;28;20059;-81
2021/12/31 13:45:33;;;;;;;9.45;3.22;;;;;;;;;;4995919;28;20046;-76
2021/12/31 13:48:16;;;;;;;9.13;3.50;;;;;;;;;;4978118;28;20494;-78
2021/12/31 13:50:44;;;;;;;6.95;3.00;;;;;;;;;;4962534;28;20129;-77
2021/12/31 13:53:21;;;;;;;9.70;3.58;;;;;;;;;;4995777;28;20038;-82
2021/12/31 13:55:49;;;;;;;10.38;3.80;;;;;;;;;;4978655;28;20043;-78
2021/12/31 13:58:26;;;;;;;5.57;2.50;;;;;;;;;;4995950;28;20046;-77
2021/12/31 14:00:54;;;;;;;11.63;2.72;;;;;;;;;;4995137;28;20137;-77
2021/12/31 14:03:23;;;;;;;10.95;4.05;;;;;;;;;;4978266;28;20043;-80
2021/12/31 14:05:57;;;;;;;9.57;3.35;;;;;;;;;;4995291;28;20043;-81
2021/12/31 14:08:42;;;;;;;4.53;2.67;;;;;;;;;;4993816;28;20466;-77
2021/12/31 14:11:12;;;;;;;5.90;2.50;;;;;;;;;;4995213;28;20044;-79
2021/12/31 14:13:40;;;;;;;8.05;3.10;;;;;;;;;;4993753;28;20034;-74
2021/12/31 14:16:10;;;;;;;4.68;2.85;;;;;;;;;;4993808;28;20046;-75
2021/12/31 14:18:38;;;;;;;5.25;2.72;;;;;;;;;;4995376;28;20085;-82
2021/12/31 14:21:09;;;;;;;6.30;2.90;;;;;;;;;;4993804;28;20042;-76
2021/12/31 14:23:37;;;;;;;8.57;3.80;;;;;;;;;;4994982;28;20064;-76
2021/12/31 14:26:04;;;;;;;6.63;3.53;;;;;;;;;;4994298;28;20061;-76
2021/12/31 14:28:31;;;;;;;6.97;2.90;;;;;;;;;;4994645;28;20038;-79
2021/12/31 14:31:03;;;;;;;5.93;2.80;;;;;;;;;;4994923;28;20042;-80
2021/12/31 14:33:32;;;;;;;5.68;2.53;;;;;;;;;;4994939;28;20046;-80
2021/12/31 14:36:17;;;;;;;7.32;2.83;;;;;;;;;;4994355;28;20057;-76
2021/12/31 14:38:46;;;;;;;9.18;3.72;;;;;;;;;;4994806;28;20050;-76
2021/12/31 14:41:21;;;;;;;6.28;2.60;;;;;;;;;;4994230;28;20055;-82
2021/12/31 14:43:53;;;;;;;6.80;3.25;;;;;;;;;;4994404;28;20486;-80
2021/12/31 14:46:23;;;;;;;6.65;2.78;;;;;;;;;;4993466;28;20050;-82
2021/12/31 14:48:51;;;;;;;5.70;2.40;;;;;;;;;;4994023;28;20062;-79
2021/12/31 14:51:19;;;;;;;6.95;2.95;;;;;;;;;;4994793;28;20409;-75
2021/12/31 14:53:50;;;;;;;10.18;3.95;;;;;;;;;;4994330;28;20042;-81
2021/12/31 14:56:24;;;;;;;5.93;2.83;;;;;;;;;;4994820;28;20069;-79
2021/12/31 14:58:52;;;;;;;3.58;2.08;;;;;;;;;;4994440;28;20042;-82
2021/12/31 15:01:23;;;;;;;7.65;2.60;;;;;;;;;;4993807;28;20045;-78
2021/12/31 15:03:58;;;;;;;6.35;2.83;;;;;;;;;;4994085;28;20066;-75
2021/12/31 15:06:26;;;;;;;4.05;2.55;;;;;;;;;;4994431;28;20073;-83